Main page
METAR-TAF:

METAR-TAF

Airports :

Sabzevar Airport

Sabzevar, Iran

latitude: 36-13N, longitude: 057-40E, elevation: 941 m

Current weather observation

The report was made 20 hours and 13 minutes ago, at 10:00 UTC
Calm wind
Temperature 15°C
Humidity 51%
Pressure 1023 hPa
Visibility 10 km or more
Few clouds at a height of 3000 ft, Cumulonimbus.
Scattered clouds at a height of 3500 ft

METAR: OIMS 051000Z 00000KT 9999 FEW030CB SCT035 15/05 Q1023

Time: 09:43 (06:13 UTC)


TAF: missing

Weather observations and forecasts of more than 4000 airports (METAR and TAF reports).

The available stations are represented by yellow and red dots on the map.

Hover mouse over dot to see the name of the station.

Then click to see weather observations and forecasts.

To change the map : click on the green buttons with a black cross to zoom in, on the green button with a dash to zoom out, or on the green arrows for adjacent maps.


METAR-TAF: